Time;durP1;ratioP1;P1;durP2;ratioP2;P2;SDS_P1;SDS_P2;PMS_P1;PMS_P2;Temp;Humidity;BMP_temperature;BMP_pressure;BME280_temperature;BME280_humidity;BME280_pressure;Samples;Min_cycle;Max_cycle;Signal;HPM_P1;HPM_P2
2021/08/28 00:01:34;;;;;;;7.90;6.93;;;;;;;12.08;100.00;100814.94;5035333;28;20206;-74
2021/08/28 00:04:00;;;;;;;9.30;7.63;;;;;;;12.11;100.00;100812.06;5051348;28;20171;-74
2021/08/28 00:06:25;;;;;;;13.83;9.60;;;;;;;12.19;100.00;100807.97;5051086;28;20202;-74
2021/08/28 00:08:50;;;;;;;12.17;9.33;;;;;;;12.33;100.00;100809.84;5052501;28;20553;-74
2021/08/28 00:11:15;;;;;;;12.27;9.80;;;;;;;12.29;100.00;100802.09;5051543;28;20214;-73
2021/08/28 00:13:43;;;;;;;9.23;8.33;;;;;;;12.31;100.00;100808.22;5052754;28;20163;-73
2021/08/28 00:16:08;;;;;;;13.37;9.37;;;;;;;12.26;100.00;100802.25;5052588;28;20687;-73
2021/08/28 00:18:33;;;;;;;15.30;10.17;;;;;;;12.28;100.00;100800.38;5051050;28;20164;-72
2021/08/28 00:20:58;;;;;;;10.97;8.47;;;;;;;12.20;100.00;100801.69;5051127;28;20219;-73
2021/08/28 00:23:24;;;;;;;13.33;9.20;;;;;;;12.32;100.00;100804.59;5051128;28;20168;-73
2021/08/28 00:25:49;;;;;;;13.53;8.93;;;;;;;12.38;100.00;100797.03;5052227;28;20568;-73
2021/08/28 00:28:15;;;;;;;11.10;8.40;;;;;;;12.39;100.00;100798.75;5051398;28;20191;-73
2021/08/28 00:30:40;;;;;;;12.47;10.37;;;;;;;12.61;100.00;100798.28;5067997;28;20176;-73
2021/08/28 00:33:10;;;;;;;13.43;10.40;;;;;;;12.62;100.00;100797.34;5051456;28;20171;-73
2021/08/28 00:35:35;;;;;;;11.27;9.77;;;;;;;12.50;100.00;100787.38;5050978;28;20199;-72
2021/08/28 00:38:01;;;;;;;10.33;8.73;;;;;;;12.46;100.00;100802.78;5051585;28;20494;-72
2021/08/28 00:40:26;;;;;;;11.83;8.83;;;;;;;12.42;100.00;100803.06;5054985;28;20171;-74
2021/08/28 00:42:51;;;;;;;13.27;9.33;;;;;;;12.45;100.00;100808.22;5056419;28;20540;-73
2021/08/28 00:45:21;;;;;;;15.13;9.70;;;;;;;12.53;100.00;100803.25;5055702;28;20702;-73
2021/08/28 00:47:55;;;;;;;12.07;10.03;;;;;;;12.49;100.00;100801.72;5054731;28;20649;-73
2021/08/28 00:50:22;;;;;;;12.03;9.23;;;;;;;12.50;100.00;100803.44;5054736;28;20182;-73
2021/08/28 00:52:47;;;;;;;10.93;9.43;;;;;;;12.44;100.00;100807.38;5055872;28;20163;-73
2021/08/28 00:55:13;;;;;;;15.97;10.57;;;;;;;12.46;100.00;100812.63;5071482;28;20225;-74
2021/08/28 00:57:38;;;;;;;12.60;9.13;;;;;;;12.53;100.00;100816.66;5054358;28;20182;-73
2021/08/28 01:00:06;;;;;;;13.33;9.50;;;;;;;12.50;100.00;100816.84;5055733;28;20174;-73
2021/08/28 01:02:32;;;;;;;14.20;9.60;;;;;;;12.46;100.00;100816.16;5054405;28;20183;-73
2021/08/28 01:05:03;;;;;;;12.50;9.93;;;;;;;12.48;100.00;100819.59;5037784;28;20178;-73
2021/08/28 01:07:36;;;;;;;15.03;9.50;;;;;;;12.44;100.00;100817.22;5054289;28;20203;-73
2021/08/28 01:10:02;;;;;;;11.10;9.57;;;;;;;12.42;100.00;100817.31;5037582;28;20640;-73
2021/08/28 01:12:35;;;;;;;12.97;9.17;;;;;;;12.42;100.00;100819.13;5054289;28;20172;-73
2021/08/28 01:15:06;;;;;;;13.50;9.93;;;;;;;12.37;100.00;100818.53;5054469;28;20167;-73
2021/08/28 01:17:34;;;;;;;11.57;9.43;;;;;;;12.40;100.00;100818.38;5038562;28;20188;-72
2021/08/28 01:20:03;;;;;;;12.23;9.70;;;;;;;12.46;100.00;100823.34;5055657;28;20171;-73
2021/08/28 01:22:29;;;;;;;12.77;9.80;;;;;;;12.46;100.00;100823.34;5055847;28;20180;-73
2021/08/28 01:24:55;;;;;;;13.27;9.83;;;;;;;12.55;100.00;100817.41;5055679;28;20266;-73
2021/08/28 01:27:40;;;;;;;14.43;10.00;;;;;;;12.41;100.00;100830.78;5055849;28;20290;-73
2021/08/28 01:30:06;;;;;;;10.97;9.53;;;;;;;12.41;100.00;100825.44;5037128;28;20183;-73
2021/08/28 01:32:32;;;;;;;14.90;9.63;;;;;;;12.42;100.00;100827.16;5053884;28;20172;-73
2021/08/28 01:34:58;;;;;;;13.03;9.83;;;;;;;12.37;100.00;100826.56;5054924;28;20537;-73
2021/08/28 01:37:24;;;;;;;14.50;9.77;;;;;;;12.40;100.00;100821.03;5056627;28;20187;-73
2021/08/28 01:39:50;;;;;;;11.90;9.30;;;;;;;12.39;100.00;100827.34;5038421;28;20257;-73
2021/08/28 01:42:15;;;;;;;12.57;9.80;;;;;;;12.39;100.00;100814.81;5053738;28;20267;-73
2021/08/28 01:44:44;;;;;;;11.67;9.77;;;;;;;12.36;100.00;100817.69;5053577;28;20211;-73
2021/08/28 01:47:10;;;;;;;12.77;9.27;;;;;;;12.38;100.00;100817.59;5049548;23;20252;-70
2021/08/28 01:49:35;;;;;;;13.50;10.07;;;;;;;12.42;100.00;100811.97;5013075;28;20615;-70
2021/08/28 01:52:01;;;;;;;11.77;8.83;;;;;;;12.51;100.00;100808.72;5013899;28;20311;-69
2021/08/28 01:54:26;;;;;;;11.57;9.47;;;;;;;12.57;100.00;100794.09;5015149;28;20181;-70
2021/08/28 01:56:51;;;;;;;11.77;9.17;;;;;;;12.60;100.00;100801.91;5010879;28;20198;-70
2021/08/28 01:59:17;;;;;;;14.47;9.13;;;;;;;12.65;100.00;100805.22;5010858;28;20182;-69
2021/08/28 02:01:42;;;;;;;10.63;8.83;;;;;;;12.68;100.00;100805.00;5010728;28;20244;-70
2021/08/28 02:04:08;;;;;;;9.60;8.60;;;;;;;12.73;100.00;100807.41;4996544;28;20182;-70
2021/08/28 02:06:36;;;;;;;9.87;8.73;;;;;;;12.62;100.00;100794.66;5012247;28;20704;-70
2021/08/28 02:09:07;;;;;;;10.13;9.13;;;;;;;12.70;100.00;100800.41;4996571;28;20189;-70
2021/08/28 02:11:45;;;;;;;12.70;8.47;;;;;;;12.71;100.00;100795.94;4995807;28;20209;-70
2021/08/28 02:14:13;;;;;;;11.07;8.67;;;;;;;12.66;100.00;100798.03;4995573;28;20201;-70
2021/08/28 02:16:41;;;;;;;12.47;9.17;;;;;;;12.70;100.00;100797.75;5011642;28;20189;-70
2021/08/28 02:19:11;;;;;;;11.37;8.53;;;;;;;12.77;100.00;100798.22;4994928;28;20173;-70
2021/08/28 02:21:37;;;;;;;10.47;8.33;;;;;;;12.79;100.00;100797.16;5010747;28;20651;-70
2021/08/28 02:24:09;;;;;;;11.67;8.33;;;;;;;12.81;100.00;100799.75;5012572;28;20173;-70
2021/08/28 02:26:44;;;;;;;12.10;8.73;;;;;;;12.84;100.00;100802.22;5010465;28;20209;-69
2021/08/28 02:29:17;;;;;;;11.13;8.63;;;;;;;12.83;100.00;100803.19;4993913;28;20212;-70
2021/08/28 02:31:44;;;;;;;8.73;7.83;;;;;;;12.88;100.00;100800.22;4993644;28;20178;-70
2021/08/28 02:34:11;;;;;;;10.63;8.50;;;;;;;12.87;100.00;100798.50;4993700;28;20551;-69
2021/08/28 02:36:39;;;;;;;13.63;8.87;;;;;;;12.90;100.00;100800.97;4993485;28;20205;-69
2021/08/28 02:39:05;;;;;;;12.30;9.13;;;;;;;12.92;100.00;100802.59;5009933;28;20180;-70
2021/08/28 02:41:30;;;;;;;12.10;9.23;;;;;;;12.93;100.00;100803.47;5010230;28;20173;-69
2021/08/28 02:43:56;;;;;;;13.00;10.27;;;;;;;12.88;100.00;100811.78;4994079;28;20232;-70
2021/08/28 02:46:24;;;;;;;16.30;11.00;;;;;;;12.83;100.00;100808.53;4994696;28;20295;-70
2021/08/28 02:48:50;;;;;;;15.10;11.43;;;;;;;12.92;100.00;100807.09;4993618;28;20193;-69
2021/08/28 02:51:16;;;;;;;16.30;10.97;;;;;;;12.94;100.00;100810.53;5010128;28;20188;-69
2021/08/28 02:53:44;;;;;;;15.23;11.23;;;;;;;13.00;100.00;100812.81;4993788;28;20174;-69
2021/08/28 02:56:09;;;;;;;14.60;10.83;;;;;;;13.01;100.00;100812.75;4993548;28;20193;-69
2021/08/28 02:58:35;;;;;;;14.33;10.77;;;;;;;12.98;100.00;100812.06;4994692;28;20252;-69
2021/08/28 03:01:00;;;;;;;16.80;11.50;;;;;;;13.01;100.00;100810.06;4994559;28;20185;-69
2021/08/28 03:03:26;;;;;;;15.00;10.57;;;;;;;13.04;100.00;100812.56;5009633;28;20566;-69
2021/08/28 03:05:52;;;;;;;16.90;11.27;;;;;;;13.03;100.00;100809.97;4994479;28;20288;-69
2021/08/28 03:08:18;;;;;;;17.83;12.00;;;;;;;12.95;100.00;100809.56;4994461;28;20225;-68
2021/08/28 03:10:45;;;;;;;14.73;10.83;;;;;;;13.06;100.00;100804.44;4992713;28;20193;-68
2021/08/28 03:13:11;;;;;;;14.27;10.77;;;;;;;13.03;100.00;100812.66;4994374;28;20539;-68
2021/08/28 03:15:36;;;;;;;16.27;11.33;;;;;;;12.88;100.00;100811.78;5009444;28;20189;-68
2021/08/28 03:18:02;;;;;;;17.43;11.30;;;;;;;12.94;100.00;100815.91;5009151;28;20185;-68
2021/08/28 03:20:27;;;;;;;19.93;11.60;;;;;;;12.91;100.00;100805.38;4992705;28;20189;-68
2021/08/28 03:22:52;;;;;;;18.73;11.53;;;;;;;12.83;100.00;100812.09;4994597;28;20572;-68
2021/08/28 03:25:18;;;;;;;18.03;11.80;;;;;;;12.89;100.00;100805.47;4993866;28;20178;-68
2021/08/28 03:27:44;;;;;;;17.30;11.67;;;;;;;12.87;100.00;100811.88;4992507;28;20197;-68
2021/08/28 03:30:11;;;;;;;16.13;11.40;;;;;;;12.87;100.00;100810.06;5009082;28;20177;-68
2021/08/28 03:32:40;;;;;;;18.73;11.07;;;;;;;12.86;100.00;100811.03;4993110;28;20554;-68
2021/08/28 03:35:05;;;;;;;18.23;11.67;;;;;;;12.87;100.00;100812.75;4998402;28;20509;-68
2021/08/28 03:37:32;;;;;;;16.13;11.40;;;;;;;12.92;100.00;100807.09;5003979;28;20255;-67
2021/08/28 03:39:57;;;;;;;14.60;10.67;;;;;;;12.93;100.00;100809.69;5012714;28;20174;-67
2021/08/28 03:42:23;;;;;;;17.80;11.33;;;;;;;12.96;100.00;100814.84;5009771;28;20547;-68
2021/08/28 03:44:48;;;;;;;14.73;10.87;;;;;;;12.92;100.00;100817.81;5011165;28;20185;-68
2021/08/28 03:47:15;;;;;;;18.03;11.47;;;;;;;12.94;100.00;100810.53;5010907;28;20239;-69
2021/08/28 03:49:40;;;;;;;16.17;10.73;;;;;;;12.90;100.00;100806.34;4996483;28;20598;-68
2021/08/28 03:52:05;;;;;;;17.77;12.77;;;;;;;12.84;100.00;100811.13;4993777;28;20186;-68
2021/08/28 03:54:31;;;;;;;19.23;11.53;;;;;;;12.81;100.00;100811.31;4993810;28;20184;-69
2021/08/28 03:56:56;;;;;;;18.23;12.33;;;;;;;12.80;100.00;100808.72;4993598;28;20204;-68
2021/08/28 03:59:21;;;;;;;16.27;11.70;;;;;;;12.87;100.00;100810.06;5009079;28;20177;-68
2021/08/28 04:01:47;;;;;;;17.90;12.00;;;;;;;12.88;100.00;100814.47;5008707;28;20182;-68
2021/08/28 04:04:13;;;;;;;17.53;11.37;;;;;;;13.00;100.00;100815.50;4992356;28;20184;-68
2021/08/28 04:06:38;;;;;;;18.30;12.40;;;;;;;12.94;100.00;100815.91;4993420;28;20671;-68
2021/08/28 04:09:03;;;;;;;17.40;11.60;;;;;;;12.95;100.00;100821.16;5008643;28;20193;-68
2021/08/28 04:11:28;;;;;;;21.03;12.37;;;;;;;12.89;100.00;100818.00;5008705;28;20186;-68
2021/08/28 04:13:54;;;;;;;19.00;11.83;;;;;;;12.89;100.00;100818.88;4995844;28;20189;-67
2021/08/28 04:16:19;;;;;;;17.40;11.87;;;;;;;12.85;100.00;100817.34;5012623;28;20205;-68
2021/08/28 04:18:44;;;;;;;15.27;10.30;;;;;;;12.80;100.00;100814.94;4997295;28;20632;-68
2021/08/28 04:21:10;;;;;;;17.87;11.60;;;;;;;12.86;100.00;100824.41;5012830;28;20228;-69
2021/08/28 04:23:35;;;;;;;19.03;12.70;;;;;;;12.87;100.00;100820.78;4997803;28;20173;-69
2021/08/28 04:26:00;;;;;;;17.47;10.57;;;;;;;12.91;100.00;100827.66;4997358;28;20248;-68
2021/08/28 04:28:25;;;;;;;19.93;12.03;;;;;;;12.95;100.00;100836.38;4997586;28;20194;-68
2021/08/28 04:30:51;;;;;;;18.80;11.70;;;;;;;12.96;100.00;100830.06;4996279;28;20309;-68
2021/08/28 04:33:16;;;;;;;18.50;11.90;;;;;;;12.98;100.00;100833.50;4995863;28;20228;-68
2021/08/28 04:35:41;;;;;;;20.80;12.17;;;;;;;13.03;100.00;100836.78;4995688;28;20178;-68
2021/08/28 04:38:07;;;;;;;21.67;12.73;;;;;;;12.97;100.00;100837.13;4997323;28;20196;-67
2021/08/28 04:40:32;;;;;;;19.40;12.47;;;;;;;12.91;100.00;100837.53;4997040;28;20209;-69
2021/08/28 04:42:58;;;;;;;19.90;11.80;;;;;;;12.89;100.00;100832.25;5012316;28;20186;-68
2021/08/28 04:45:23;;;;;;;21.30;13.43;;;;;;;12.94;100.00;100831.97;5012543;28;20178;-68
2021/08/28 04:47:48;;;;;;;18.67;11.60;;;;;;;13.10;100.00;100838.09;5012049;28;20297;-67
2021/08/28 04:50:14;;;;;;;26.87;12.23;;;;;;;12.93;100.00;100828.44;4996995;28;20220;-67
2021/08/28 04:52:39;;;;;;;21.03;12.53;;;;;;;12.95;100.00;100829.19;5011900;28;20196;-67
2021/08/28 04:55:04;;;;;;;19.07;11.97;;;;;;;13.12;100.00;100830.81;4996876;28;20702;-68
2021/08/28 04:57:30;;;;;;;18.03;12.00;;;;;;;13.20;100.00;100831.22;5011901;28;20189;-69
2021/08/28 04:59:55;;;;;;;15.43;10.23;;;;;;;13.28;100.00;100831.59;5011770;28;20208;-67
2021/08/28 05:02:21;;;;;;;17.37;11.60;;;;;;;13.27;100.00;100829.88;5011774;28;20197;-69
2021/08/28 05:04:46;;;;;;;14.57;9.73;;;;;;;13.35;100.00;100822.19;4995204;28;20636;-68
2021/08/28 05:07:11;;;;;;;15.47;10.73;;;;;;;13.42;100.00;100831.59;5011740;28;20193;-69
2021/08/28 05:09:36;;;;;;;16.27;10.60;;;;;;;13.35;100.00;100822.19;4996406;28;20174;-69
2021/08/28 05:12:02;;;;;;;19.63;11.07;;;;;;;13.20;100.00;100825.88;4995184;28;20178;-68
2021/08/28 05:14:27;;;;;;;19.00;11.87;;;;;;;13.23;100.00;100828.34;4996663;28;20204;-68
2021/08/28 05:16:52;;;;;;;16.17;11.67;;;;;;;13.35;100.00;100835.59;4996393;28;20698;-69
2021/08/28 05:19:18;;;;;;;16.03;11.10;;;;;;;13.44;100.00;100826.97;4995220;28;20185;-69
2021/08/28 05:21:45;;;;;;;16.83;11.23;;;;;;;13.53;100.00;100832.69;4996297;28;20170;-69
2021/08/28 05:24:10;;;;;;;16.67;11.40;;;;;;;13.64;100.00;100832.84;4996103;28;20261;-69
2021/08/28 05:26:35;;;;;;;18.43;12.10;;;;;;;13.75;100.00;100835.66;4994744;28;20540;-68
2021/08/28 05:29:01;;;;;;;21.20;12.57;;;;;;;13.59;100.00;100837.66;5011119;28;20304;-68
2021/08/28 05:31:26;;;;;;;20.27;13.27;;;;;;;13.57;100.00;100837.75;4996059;28;20182;-68
2021/08/28 05:33:51;;;;;;;18.70;13.17;;;;;;;13.57;100.00;100832.38;4996164;28;20174;-68
2021/08/28 05:36:17;;;;;;;17.67;12.30;;;;;;;13.68;100.00;100843.28;4996280;28;20193;-68
2021/08/28 05:38:42;;;;;;;19.80;12.93;;;;;;;13.65;100.00;100842.63;4996071;28;20170;-68
2021/08/28 05:41:08;;;;;;;20.40;13.87;;;;;;;13.54;100.00;100843.31;4995890;28;20543;-69
2021/08/28 05:43:34;;;;;;;19.97;13.20;;;;;;;13.72;100.00;100842.09;4996357;28;20173;-68
2021/08/28 05:45:59;;;;;;;17.63;12.20;;;;;;;13.83;100.00;100836.06;5011733;28;20753;-70
2021/08/28 05:48:24;;;;;;;16.73;11.90;;;;;;;14.00;100.00;100845.66;5012054;28;20182;-69
2021/08/28 05:50:49;;;;;;;16.67;12.87;;;;;;;14.12;100.00;100836.75;4994614;28;20189;-69
2021/08/28 05:53:15;;;;;;;16.57;11.97;;;;;;;14.07;100.00;100839.75;5010780;28;20544;-68
2021/08/28 05:55:40;;;;;;;14.77;10.43;;;;;;;14.35;100.00;100832.53;5010691;28;20256;-69
2021/08/28 05:58:06;;;;;;;16.83;11.30;;;;;;;14.43;100.00;100832.88;5011411;28;20201;-69
2021/08/28 06:00:31;;;;;;;15.30;10.70;;;;;;;14.49;100.00;100837.81;5010834;28;20174;-69
2021/08/28 06:02:56;;;;;;;16.63;11.00;;;;;;;14.73;100.00;100840.66;4995487;28;20198;-68
2021/08/28 06:05:21;;;;;;;14.73;10.80;;;;;;;15.00;100.00;100845.91;5010527;28;20253;-69
2021/08/28 06:07:47;;;;;;;13.33;10.43;;;;;;;14.73;100.00;100846.03;4995509;28;20197;-70
2021/08/28 06:10:12;;;;;;;12.40;9.77;;;;;;;14.62;100.00;100851.28;4995681;28;20658;-69
2021/08/28 06:12:37;;;;;;;11.87;9.47;;;;;;;14.86;100.00;100838.81;5010614;28;20670;-69
2021/08/28 06:15:05;;;;;;;14.67;9.93;;;;;;;14.85;100.00;100844.28;4994068;28;20170;-68
2021/08/28 06:17:31;;;;;;;11.80;9.20;;;;;;;14.82;100.00;100836.44;4993891;28;20196;-68
2021/08/28 06:19:56;;;;;;;9.70;8.47;;;;;;;14.89;100.00;100845.81;5010572;28;20170;-69
2021/08/28 06:22:21;;;;;;;10.23;8.07;;;;;;;15.03;100.00;100848.38;4995069;28;20177;-69
2021/08/28 06:24:46;;;;;;;11.47;8.60;;;;;;;14.98;100.00;100839.78;5010124;28;20252;-69
2021/08/28 06:27:12;;;;;;;13.30;9.43;;;;;;;14.77;100.00;100839.47;5010128;28;20194;-70
2021/08/28 06:29:37;;;;;;;10.57;8.03;;;;;;;14.67;100.00;100836.56;4994920;28;20188;-69
2021/08/28 06:32:04;;;;;;;11.63;8.40;;;;;;;14.78;100.00;100833.13;4994876;28;20183;-69
2021/08/28 06:34:29;;;;;;;12.03;8.57;;;;;;;14.74;100.00;100838.81;4995166;28;20216;-69
2021/08/28 06:36:54;;;;;;;11.37;9.47;;;;;;;14.81;100.00;100829.34;5009488;28;20221;-70
2021/08/28 06:39:20;;;;;;;11.80;8.97;;;;;;;14.94;100.00;100831.09;4994738;28;20577;-69
2021/08/28 06:41:45;;;;;;;9.90;8.37;;;;;;;14.63;100.00;100840.44;5009942;28;20165;-70
2021/08/28 06:44:10;;;;;;;10.73;8.60;;;;;;;14.57;100.00;100845.38;4993905;28;20224;-69
2021/08/28 06:46:35;;;;;;;11.30;9.03;;;;;;;14.62;100.00;100848.59;5009585;28;20201;-70
2021/08/28 06:49:01;;;;;;;12.03;8.60;;;;;;;14.85;100.00;100845.16;5009943;28;20193;-70
2021/08/28 06:51:26;;;;;;;10.97;7.77;;;;;;;15.02;100.00;100852.03;4994635;28;20181;-68
2021/08/28 06:53:51;;;;;;;11.33;8.57;;;;;;;14.93;100.00;100853.56;4994517;28;20180;-68
2021/08/28 06:56:17;;;;;;;10.90;8.47;;;;;;;14.93;100.00;100850.00;4994629;28;20194;-68
2021/08/28 06:58:43;;;;;;;10.37;8.23;;;;;;;14.96;100.00;100842.59;5009621;28;20174;-70
2021/08/28 07:01:08;;;;;;;10.47;8.17;;;;;;;15.22;100.00;100850.59;4993795;28;20284;-69
2021/08/28 07:03:33;;;;;;;10.30;8.23;;;;;;;14.84;100.00;100838.06;5010153;28;20209;-69
2021/08/28 07:05:59;;;;;;;11.87;8.80;;;;;;;15.07;100.00;100839.13;4994592;28;20711;-69
2021/08/28 07:08:24;;;;;;;11.63;10.40;;;;;;;15.13;100.00;100838.69;4994222;28;20211;-70
2021/08/28 07:10:49;;;;;;;13.03;8.93;;;;;;;15.20;100.00;100844.47;4994378;28;20185;-69
2021/08/28 07:13:15;;;;;;;11.53;8.67;;;;;;;15.22;100.00;100839.84;4994089;28;20714;-70
2021/08/28 07:15:40;;;;;;;10.13;8.17;;;;;;;15.32;100.00;100840.91;5009121;28;20166;-70
2021/08/28 07:18:08;;;;;;;9.40;6.97;;;;;;;15.28;100.00;100842.97;4994163;28;20173;-70
2021/08/28 07:20:33;;;;;;;10.47;7.53;;;;;;;15.58;100.00;100836.34;5009080;28;20177;-69
2021/08/28 07:22:59;;;;;;;9.70;7.60;;;;;;;15.71;100.00;100845.25;4994171;28;20177;-69
2021/08/28 07:25:24;;;;;;;8.07;5.97;;;;;;;16.17;99.13;100836.41;4994046;28;20186;-70
2021/08/28 07:27:49;;;;;;;9.20;6.77;;;;;;;16.40;96.83;100842.72;4994272;28;20520;-71
2021/08/28 07:30:15;;;;;;;10.07;7.83;;;;;;;16.20;97.75;100838.84;4993914;28;20181;-69
2021/08/28 07:32:40;;;;;;;7.73;5.90;;;;;;;16.83;95.13;100830.34;4994074;28;20221;-68
2021/08/28 07:35:06;;;;;;;9.47;6.33;;;;;;;16.46;94.88;100843.09;5009770;28;20227;-70
2021/08/28 07:37:31;;;;;;;10.40;7.00;;;;;;;15.87;100.00;100847.63;5009079;28;20571;-69
2021/08/28 07:39:56;;;;;;;7.40;6.67;;;;;;;16.21;98.57;100840.56;5009567;28;20513;-68
2021/08/28 07:42:22;;;;;;;8.43;5.87;;;;;;;16.85;96.02;100843.69;4993701;28;20200;-68
2021/08/28 07:44:47;;;;;;;8.47;6.13;;;;;;;16.25;94.81;100839.34;5009188;28;20178;-68
2021/08/28 07:47:12;;;;;;;7.23;5.77;;;;;;;16.70;94.64;100844.88;5044614;23;20246;-75
2021/08/28 07:49:39;;;;;;;8.37;6.40;;;;;;;17.06;90.79;100841.97;5051903;28;20669;-74
2021/08/28 07:52:04;;;;;;;9.20;5.20;;;;;;;16.41;92.91;100837.22;5053915;28;20164;-72
2021/08/28 07:54:30;;;;;;;8.73;5.43;;;;;;;16.48;93.39;100843.84;5053341;28;20194;-74
2021/08/28 07:56:55;;;;;;;7.77;5.03;;;;;;;16.20;94.50;100846.94;5053207;28;20253;-73
2021/08/28 07:59:20;;;;;;;7.70;5.23;;;;;;;16.44;92.81;100846.91;5068499;28;20592;-73
2021/08/28 08:01:46;;;;;;;10.73;6.10;;;;;;;16.23;93.69;100844.00;5051881;28;20182;-73
2021/08/28 08:04:11;;;;;;;10.20;6.00;;;;;;;16.49;94.32;100844.69;5051995;28;20179;-73
2021/08/28 08:06:36;;;;;;;8.37;6.17;;;;;;;16.40;94.09;100843.59;5052826;28;20196;-74
2021/08/28 08:09:02;;;;;;;7.17;5.20;;;;;;;16.91;93.45;100837.81;5053591;28;20194;-73
2021/08/28 08:11:27;;;;;;;7.10;5.07;;;;;;;16.41;93.68;100847.13;5051576;28;20274;-73
2021/08/28 08:13:53;;;;;;;7.50;5.40;;;;;;;16.62;93.42;100845.47;5052075;28;20179;-73
2021/08/28 08:16:18;;;;;;;12.43;5.50;;;;;;;17.18;89.63;100846.41;5051644;28;20175;-73
2021/08/28 08:18:43;;;;;;;8.53;5.57;;;;;;;16.81;92.35;100845.78;5051582;28;20167;-73
2021/08/28 08:21:08;;;;;;;9.70;6.47;;;;;;;17.16;90.58;100845.69;5052809;28;20182;-74
2021/08/28 08:23:34;;;;;;;6.73;5.40;;;;;;;17.23;90.17;100839.78;5052940;28;20176;-73
2021/08/28 08:25:59;;;;;;;7.23;5.93;;;;;;;17.39;89.82;100837.56;5052925;28;20538;-74
2021/08/28 08:28:24;;;;;;;9.57;6.27;;;;;;;17.00;92.04;100844.31;5053243;28;20187;-74
2021/08/28 08:30:50;;;;;;;9.13;5.67;;;;;;;16.75;90.91;100846.28;5034669;28;20229;-74
2021/08/28 08:33:15;;;;;;;8.57;5.90;;;;;;;17.14;91.49;100849.47;5052767;28;20168;-74
2021/08/28 08:35:40;;;;;;;8.20;6.00;;;;;;;17.64;88.80;100850.75;5051707;28;20168;-74
2021/08/28 08:38:06;;;;;;;8.70;5.97;;;;;;;17.63;88.42;100854.44;5052574;28;20184;-74
2021/08/28 08:40:32;;;;;;;7.77;6.00;;;;;;;17.54;88.82;100849.81;5051354;28;20669;-74
2021/08/28 08:43:02;;;;;;;7.17;5.10;;;;;;;18.03;84.40;100843.06;5051271;28;20634;-74
2021/08/28 08:45:27;;;;;;;10.60;6.17;;;;;;;18.03;83.87;100849.34;5052682;28;20182;-74
2021/08/28 08:47:53;;;;;;;8.20;4.93;;;;;;;18.40;82.60;100852.47;5051230;28;20235;-73
2021/08/28 08:50:20;;;;;;;8.30;5.00;;;;;;;18.62;82.27;100847.97;5051196;28;20180;-74
2021/08/28 08:52:52;;;;;;;8.93;6.13;;;;;;;18.43;81.48;100849.50;5051253;28;20179;-73
2021/08/28 08:55:18;;;;;;;7.67;5.47;;;;;;;18.90;81.32;100855.38;5051509;28;20168;-74
2021/08/28 08:57:43;;;;;;;6.13;4.17;;;;;;;19.32;80.58;100842.63;5051169;28;20267;-73
2021/08/28 09:00:09;;;;;;;7.47;5.37;;;;;;;18.74;80.75;100841.50;5053449;28;20186;-73
2021/08/28 09:02:36;;;;;;;7.23;4.73;;;;;;;19.03;80.03;100849.78;5054783;28;20194;-74
2021/08/28 09:05:01;;;;;;;7.90;5.10;;;;;;;18.69;81.13;100852.72;5056152;28;20168;-74
2021/08/28 09:07:26;;;;;;;7.87;5.27;;;;;;;18.21;84.44;100857.75;5056204;28;20214;-74
2021/08/28 09:09:51;;;;;;;10.67;5.90;;;;;;;17.39;88.32;100848.34;5056455;28;20187;-73
2021/08/28 09:12:17;;;;;;;8.37;5.90;;;;;;;16.99;91.27;100845.28;5054869;28;20549;-73
2021/08/28 09:14:43;;;;;;;9.03;6.70;;;;;;;17.23;90.86;100848.72;5056171;28;20548;-73
2021/08/28 09:17:18;;;;;;;7.97;5.27;;;;;;;17.52;87.55;100845.53;5055397;28;20187;-73
2021/08/28 09:19:44;;;;;;;8.17;5.37;;;;;;;17.94;85.42;100855.50;5071852;28;20197;-74
2021/08/28 09:22:27;;;;;;;6.80;5.13;;;;;;;17.65;85.66;100849.78;5059565;28;20262;-73
2021/08/28 09:24:55;;;;;;;6.83;4.77;;;;;;;18.25;83.87;100847.53;5059557;28;20176;-74
2021/08/28 09:27:43;;;;;;;9.27;5.20;;;;;;;18.66;81.51;100850.28;5057322;28;20191;-73
2021/08/28 09:30:33;;;;;;;7.73;4.93;;;;;;;18.46;83.20;100848.41;5056472;28;20179;-74
2021/08/28 09:33:02;;;;;;;6.43;4.30;;;;;;;18.66;80.00;100846.72;5056898;28;20221;-73
2021/08/28 09:35:40;;;;;;;6.33;4.83;;;;;;;18.36;79.75;100842.06;5054396;28;20176;-73
2021/08/28 09:38:06;;;;;;;8.10;4.90;;;;;;;18.85;78.30;100849.53;5056241;28;20183;-74
2021/08/28 09:40:35;;;;;;;6.30;4.47;;;;;;;19.22;75.63;100844.44;5055539;28;20176;-75
2021/08/28 09:43:05;;;;;;;7.60;4.13;;;;;;;19.29;76.77;100847.44;5054115;28;20171;-75
2021/08/28 09:45:31;;;;;;;5.60;3.93;;;;;;;19.53;76.90;100855.25;5054651;28;20155;-74
2021/08/28 09:47:57;;;;;;;7.33;4.63;;;;;;;19.38;76.80;100848.50;5070643;28;20624;-74
2021/08/28 09:50:31;;;;;;;6.53;4.20;;;;;;;20.03;75.22;100845.22;5054540;28;20203;-75
2021/08/28 09:53:11;;;;;;;7.97;4.37;;;;;;;20.05;73.48;100854.06;5054840;28;20549;-74
2021/08/28 09:55:39;;;;;;;5.63;4.67;;;;;;;19.65;74.81;100848.72;5054887;28;20167;-75
2021/08/28 09:58:06;;;;;;;6.10;4.20;;;;;;;19.64;74.44;100847.88;5054502;28;20184;-74
2021/08/28 10:00:33;;;;;;;6.00;4.57;;;;;;;19.95;73.98;100855.91;5055789;28;20167;-74
2021/08/28 10:03:04;;;;;;;6.13;4.30;;;;;;;19.05;75.73;100839.69;5054296;28;20175;-74
2021/08/28 10:05:31;;;;;;;6.57;4.43;;;;;;;18.80;76.53;100837.41;5037795;28;20214;-75
2021/08/28 10:07:58;;;;;;;6.47;4.40;;;;;;;18.65;76.82;100837.75;5055559;28;20669;-75
2021/08/28 10:10:24;;;;;;;5.57;4.00;;;;;;;19.20;75.43;100843.72;5036156;28;20172;-74
2021/08/28 10:12:49;;;;;;;6.07;4.13;;;;;;;18.87;76.86;100834.03;5053304;28;20584;-74
2021/08/28 10:15:15;;;;;;;5.40;3.50;;;;;;;20.18;74.57;100845.69;5055059;28;20183;-74
2021/08/28 10:17:41;;;;;;;5.63;4.07;;;;;;;19.74;74.17;100833.53;5053917;28;20195;-73
2021/08/28 10:20:07;;;;;;;6.67;3.53;;;;;;;20.34;73.10;100837.81;5053386;28;20172;-74
2021/08/28 10:22:36;;;;;;;4.63;3.30;;;;;;;20.91;71.00;100831.47;5054270;28;20183;-74
2021/08/28 10:25:07;;;;;;;5.67;3.50;;;;;;;21.08;69.15;100837.97;5054426;28;20214;-74
2021/08/28 10:27:32;;;;;;;4.63;3.80;;;;;;;19.58;72.49;100837.63;5053280;28;20214;-74
2021/08/28 10:29:58;;;;;;;6.43;3.40;;;;;;;19.51;74.04;100836.44;5053087;28;20183;-73
2021/08/28 10:32:23;;;;;;;5.27;3.70;;;;;;;19.03;75.91;100831.72;5036303;28;20258;-74
2021/08/28 10:34:49;;;;;;;7.43;4.10;;;;;;;18.83;76.90;100834.44;5052962;28;20206;-74
2021/08/28 10:37:15;;;;;;;6.30;3.30;;;;;;;18.88;77.33;100830.34;5036427;28;20684;-75
2021/08/28 10:39:41;;;;;;;5.70;4.23;;;;;;;18.60;78.62;100831.00;5052817;28;20172;-73
2021/08/28 10:42:07;;;;;;;5.93;4.17;;;;;;;18.98;77.66;100828.56;5052745;28;20634;-73
2021/08/28 10:44:33;;;;;;;5.63;4.27;;;;;;;19.05;78.34;100834.28;5069378;28;20204;-74
2021/08/28 10:46:59;;;;;;;5.23;3.80;;;;;;;19.47;75.65;100835.00;5052744;28;20254;-74
2021/08/28 10:49:24;;;;;;;6.77;4.03;;;;;;;18.94;76.70;100832.50;5069291;28;20191;-73
2021/08/28 10:51:54;;;;;;;5.53;3.67;;;;;;;19.08;76.84;100827.72;5052504;28;20172;-75
2021/08/28 10:54:23;;;;;;;5.40;3.40;;;;;;;19.31;75.31;100834.63;5036120;28;20544;-74
2021/08/28 10:56:54;;;;;;;4.63;3.17;;;;;;;19.50;74.73;100832.00;5052369;28;20270;-75
2021/08/28 10:59:29;;;;;;;5.57;3.20;;;;;;;19.72;74.03;100835.53;5035795;28;20164;-73
2021/08/28 11:02:10;;;;;;;3.70;3.10;;;;;;;20.30;72.06;100837.25;5052774;28;20251;-73
2021/08/28 11:04:45;;;;;;;4.53;3.43;;;;;;;20.56;71.94;100823.13;5035576;28;20195;-73
2021/08/28 11:07:26;;;;;;;4.70;3.57;;;;;;;19.26;76.02;100826.94;5052410;28;20227;-74
2021/08/28 11:10:02;;;;;;;3.90;2.93;;;;;;;18.94;77.04;100818.97;5052782;28;20609;-74